Flight Track Log - Related Links

Times and Time Zones

All times are in EDT time to prevent confusion due to time zone crossing. See the FLG3780 flight status page for this flight to view local times or setup timezone preferences in your user account.

Time Position Orientation Groundspeed Altitude Reporting Facility
EDT Latitude Longitude Course Direction KTS MPH feet Rate Location/Type
Fri 04:13:53 PM 42.1953 -83.3608 56° Northeast 173 199 1,400  Level Cleveland Center
Fri 04:14:48 PM 42.1433 -83.3556 176° South 229 264 2,900 1,932 Climbing Cleveland Center
Fri 04:16:00 PM 42.2808 -82.9068 74° East  Level FlightAware Approximate
Fri 04:16:00 PM 42.1650 -83.1731 90° East  Level Estimated
Fri 04:16:50 PM 42.0000 -83.3269 90° East 310 357 7,100  Level Cleveland Center
Fri 04:17:00 PM 42.3092 -82.7574 78° East  Level FlightAware Approximate
Fri 04:18:00 PM 42.3324 -82.6062 78° East  Level FlightAware Approximate
Fri 04:18:32 PM 42.0144 -83.1572 83° East 334 384 10,000  Level Cleveland Center
Fri 04:19:00 PM 42.3620 -82.4594 56° Northeast  Level FlightAware Approximate
Fri 04:19:32 PM 42.0461 -83.0383 70° East 324 373 11,200  Level Cleveland Center
Fri 04:20:32 PM 42.0822 -82.9136 69° East 338 389 12,700 1,650 Climbing Cleveland Center
Fri 04:21:32 PM 42.1203 -82.7836 68° East 357 411 14,500 1,650 Climbing Cleveland Center
Fri 04:22:32 PM 42.1622 -82.6561 66° East 362 417 16,000 1,350 Climbing Cleveland Center
Fri 04:23:32 PM 42.2103 -82.5258 63° Northeast 372 428 17,200 1,350 Climbing Cleveland Center
Fri 04:24:32 PM 42.2564 -82.3925 65° Northeast 383 441 18,700 1,350 Climbing Cleveland Center
Fri 04:25:32 PM 42.3042 -82.2592 64° Northeast 388 447 19,900 1,300 Climbing Cleveland Center
Fri 04:26:32 PM 42.3314 -82.1028 77° East 388 447 21,300 1,100 Climbing Cleveland Center
Fri 04:27:32 PM 42.3769 -81.9689 65° Northeast 382 440 22,100 800 Climbing Cleveland Center
Fri 04:28:32 PM 42.4386 -81.8436 56° Northeast 392 451 22,900 800 Climbing Cleveland Center
Fri 04:29:32 PM 42.4525 -81.7089 82° East 392 451 23,700 700 Climbing Cleveland Center
Fri 04:30:32 PM 42.4644 -81.5542 84° East 398 458 24,300 645 Climbing Cleveland Center
Fri 04:31:33 PM 42.4739 -81.3967 85° East 405 466 25,000 645 Climbing Cleveland Center
Fri 04:32:33 PM 42.4833 -81.2419 85° East 413 475 25,600 605 Climbing Cleveland Center
Fri 04:33:32 PM 42.4967 -81.0900 83° East 413 475 26,200 605 Climbing Cleveland Center
Fri 04:34:32 PM 42.5056 -80.9267 86° East 420 483 26,800 600 Climbing Cleveland Center
Fri 04:35:32 PM 42.5164 -80.7578 85° East 420 483 27,400 600 Climbing Cleveland Center
Fri 04:36:32 PM 42.5269 -80.6028 85° East 420 483 28,000 600 Climbing Cleveland Center
Fri 04:37:32 PM 42.5372 -80.4481 85° East 420 483 28,600 600 Climbing Cleveland Center
Fri 04:38:32 PM 42.5453 -80.2900 86° East 414 476 29,200 600 Climbing Cleveland Center
Fri 04:39:32 PM 42.5553 -80.1378 85° East 408 470 29,800 550 Climbing Cleveland Center
Fri 04:40:32 PM 42.5628 -79.9883 86° East 402 463 30,300 500 Climbing Cleveland Center
Fri 04:41:32 PM 42.5744 -79.8361 84° East 402 463 30,800 350 Climbing Cleveland Center
Fri 04:42:32 PM 42.5839 -79.6808 85° East 402 463 31,000 100 Climbing Cleveland Center
Fri 04:43:32 PM 42.5908 -79.5256 86° East 402 463 31,000  Level Cleveland Center
Fri 04:44:32 PM 42.5997 -79.3647 86° East 407 468 31,000  Level Cleveland Center
Fri 04:45:32 PM 42.6083 -79.2039 86° East 418 481 31,000  Level Cleveland Center
Fri 04:46:32 PM 42.6042 -79.0431 92° East 423 487 31,000  Level Cleveland Center
Fri 04:47:32 PM 42.5872 -78.8828 98° East 423 487 31,000  Level Cleveland Center
Fri 04:48:32 PM 42.5683 -78.7225 99° East 423 487 31,000  Level Cleveland Center
Fri 04:49:32 PM 42.5531 -78.5622 97° East 423 487 31,000  Level Cleveland Center
Fri 04:50:32 PM 42.5500 -78.3989 91° East 423 487 31,000  Level Cleveland Center
Fri 04:51:33 PM 42.5594 -78.2350 85° East 423 487 31,000  Level Cleveland Center
Fri 04:52:32 PM 42.5706 -78.0711 85° East 428 493 31,000  Level Cleveland Center
Fri 04:53:32 PM 42.5792 -77.9072 86° East 428 493 31,000  Level Cleveland Center
Fri 04:56:13 PM 42.6028 -77.4903 85° East 468 539 31,000  Level Boston Center
Fri 04:57:13 PM 42.6136 -77.2908 86° East 435 501 31,000  Level Boston Center
Fri 04:58:13 PM 42.6228 -77.1250 86° East 448 516 31,000  Level Boston Center
Fri 04:59:13 PM 42.6317 -76.9561 86° East 448 516 31,000  Level Boston Center
Fri 05:00:13 PM 42.6403 -76.7844 86° East 440 506 31,000  Level Boston Center
Fri 05:01:13 PM 42.6489 -76.6128 86° East 440 506 31,000  Level Boston Center
Fri 05:02:13 PM 42.6539 -76.4747 87° East 445 512 31,000  Level Boston Center
Fri 05:03:13 PM 42.6633 -76.2608 86° East 457 526 31,000  Level Boston Center
Fri 05:04:13 PM 42.6753 -76.0892 85° East 457 526 31,000  Level Boston Center
Fri 05:05:13 PM 42.6789 -75.9058 88° East 467 537 31,000  Level Boston Center
Fri 05:06:13 PM 42.6864 -75.7281 87° East 472 543 31,000  Level Boston Center
Fri 05:07:13 PM 42.6917 -75.5419 88° East 477 549 31,000  Level Boston Center
Fri 05:08:13 PM 42.7000 -75.3783 86° East 483 556 31,000  Level Boston Center
Fri 05:09:13 PM 42.7067 -75.1950 87° East 483 556 31,000 -50 Level Boston Center
Fri 05:10:13 PM 42.7131 -75.0117 87° East 483 556 30,900 -700 Descending Boston Center
Fri 05:11:13 PM 42.7464 -74.8292 76° East 483 556 29,600 -864 Descending Boston Center
Fri 05:12:25 PM 42.7833 -74.6525 74° East 483 556 29,000 -273 Descending Boston Center
Fri 05:13:25 PM 42.8206 -74.4386 77° East 483 556 29,000 -300 Level Boston Center
Fri 05:14:25 PM 42.8611 -74.2586 73° East 483 556 28,400 -900 Descending Boston Center
Fri 05:15:25 PM 42.8950 -74.0839 75° East 483 556 27,200 -1,850 Descending Boston Center
Fri 05:16:25 PM 42.9119 -73.9142 82° East 474 545 24,700 -1,600 Descending Boston Center
Fri 05:17:25 PM 42.8992 -73.7522 96° East 442 509 24,000 -900 Descending Boston Center
Fri 05:18:25 PM 42.8864 -73.5878 96° East 435 501 22,900 -1,300 Descending Boston Center
Fri 05:19:25 PM 42.8733 -73.4289 96° East 435 501 21,400 -1,500 Descending Boston Center
Fri 05:20:25 PM 42.8683 -73.2728 92° East 420 483 19,900 -1,200 Descending Boston Center
Fri 05:21:25 PM 42.8547 -73.1197 97° East 415 478 19,000 -450 Descending Boston Center
Fri 05:22:25 PM 42.8472 -72.9725 94° East 404 465 19,000 -850 Level Boston Center
Fri 05:23:25 PM 42.8333 -72.8081 97° East 404 465 17,300 -1,800 Descending Boston Center
Fri 05:24:25 PM 42.8233 -72.6608 95° East 399 459 15,400 -1,900 Descending Boston Center
Fri 05:25:25 PM 42.8131 -72.5164 95° East 387 445 13,500 -1,750 Descending Boston Center
Fri 05:26:25 PM 42.8317 -72.3806 79° East 377 434 11,900 -1,300 Descending Boston Center
Fri 05:27:25 PM 42.8464 -72.2589 81° East 355 409 10,900 -1,050 Descending Boston Center
Fri 05:28:25 PM 42.8606 -72.1428 81° East 321 369 9,800 -1,000 Descending Boston Center
Fri 05:29:25 PM 42.8747 -72.0264 81° East 316 364 8,900 -1,000 Descending Boston Center
Fri 05:30:25 PM 42.9014 -71.9158 72° East 306 352 7,800 -1,050 Descending Boston Center
Fri 05:31:25 PM 42.9553 -71.8217 52° Northeast 301 346 6,800 -1,150 Descending Boston Center
Fri 05:32:25 PM 43.0089 -71.7331 50° Northeast 306 352 5,500 -1,300 Descending Boston Center
Fri 05:33:25 PM 43.0583 -71.6472 52° Northeast 301 346 4,200 -1,404 Descending Boston Center
Fri 05:33:59 PM 43.0833 -71.6000 54° Northeast 275 316 3,300 -1,020 Descending KA90
Fri 05:35:05 PM 43.1000 -71.5167 75° East 231 266 2,500 -727 Descending KA90

Login

Don't have an account? Register now (free) for customized features, flight alerts, and more!